Time;durP1;ratioP1;P1;durP2;ratioP2;P2;SDS_P1;SDS_P2;PMS_P1;PMS_P2;Temp;Humidity;BMP_temperature;BMP_pressure;BME280_temperature;BME280_humidity;BME280_pressure;Samples;Min_cycle;Max_cycle;Signal;HPM_P1;HPM_P2
2023/07/13 00:02:26;;;;;;;10.73;7.03;;;16.00;99.90;;;;;;5044470;28;20026;-70
2023/07/13 00:04:52;;;;;;;12.30;6.97;;;15.90;99.90;;;;;;5043594;28;20411;-71
2023/07/13 00:07:19;;;;;;;10.20;6.93;;;15.90;99.90;;;;;;5044304;28;20040;-70
2023/07/13 00:09:46;;;;;;;9.50;6.40;;;15.80;99.90;;;;;;5044023;28;20028;-71
2023/07/13 00:12:30;;;;;;;12.73;6.78;;;15.90;99.90;;;;;;5042880;28;20029;-70
2023/07/13 00:15:02;;;;;;;11.47;8.13;;;15.90;99.90;;;;;;5043771;28;20041;-70
2023/07/13 00:17:28;;;;;;;17.45;7.28;;;15.90;99.90;;;;;;5043340;28;20261;-70
2023/07/13 00:19:56;;;;;;;10.15;7.75;;;15.80;99.90;;;;;;5043772;28;20022;-71
2023/07/13 00:22:25;;;;;;;13.45;7.93;;;15.90;99.90;;;;;;5043675;28;20018;-70
2023/07/13 00:24:51;;;;;;;14.40;8.45;;;15.80;99.90;;;;;;5043848;28;20029;-70
2023/07/13 00:27:17;;;;;;;13.00;8.07;;;15.90;99.90;;;;;;5044097;28;20022;-71
2023/07/13 00:29:43;;;;;;;20.58;8.00;;;15.80;99.90;;;;;;5045110;28;20423;-71
2023/07/13 00:32:09;;;;;;;11.82;7.85;;;15.70;99.90;;;;;;5043606;28;20036;-70
2023/07/13 00:34:35;;;;;;;19.85;7.88;;;15.70;99.90;;;;;;5043473;28;20429;-70
2023/07/13 00:37:00;;;;;;;11.60;7.38;;;15.70;99.90;;;;;;5043524;28;20021;-71
2023/07/13 00:39:27;;;;;;;11.75;7.60;;;15.60;99.90;;;;;;5040754;28;20081;-71
2023/07/13 00:41:52;;;;;;;12.88;7.30;;;15.70;99.90;;;;;;5043227;28;20049;-71
2023/07/13 00:44:19;;;;;;;13.60;8.10;;;15.60;99.90;;;;;;5041977;28;20052;-70
2023/07/13 00:46:46;;;;;;;13.98;8.45;;;15.70;99.90;;;;;;5042221;28;20022;-70
2023/07/13 00:49:14;;;;;;;13.85;8.60;;;15.70;99.90;;;;;;5043050;28;20029;-71
2023/07/13 00:51:56;;;;;;;17.45;9.95;;;15.70;99.90;;;;;;5043452;28;20060;-71
2023/07/13 00:54:33;;;;;;;16.13;9.90;;;15.50;99.90;;;;;;5043071;28;20041;-71
2023/07/13 00:57:02;;;;;;;18.92;10.55;;;15.60;99.90;;;;;;5043032;28;20037;-71
2023/07/13 00:59:28;;;;;;;15.43;10.40;;;15.60;99.90;;;;;;5043159;28;20021;-71
2023/07/13 01:01:54;;;;;;;19.92;10.85;;;15.60;99.90;;;;;;5042929;28;20032;-70
2023/07/13 01:04:20;;;;;;;16.98;10.45;;;15.60;99.90;;;;;;5043301;28;20029;-71
2023/07/13 01:06:47;;;;;;;19.52;11.30;;;15.50;99.90;;;;;;5042009;28;20052;-71
2023/07/13 01:09:14;;;;;;;17.38;10.85;;;15.50;99.90;;;;;;5042630;28;20026;-70
2023/07/13 01:11:41;;;;;;;17.45;10.30;;;15.50;99.90;;;;;;5043141;28;20026;-70
2023/07/13 01:14:07;;;;;;;15.93;10.38;;;15.50;99.90;;;;;;5042834;28;20042;-70
2023/07/13 01:16:35;;;;;;;18.27;10.70;;;15.50;99.90;;;;;;5042534;28;20557;-69
2023/07/13 01:19:03;;;;;;;18.88;11.00;;;15.40;99.90;;;;;;5042797;28;20047;-70
2023/07/13 01:21:32;;;;;;;15.15;10.13;;;15.40;99.90;;;;;;5042367;28;20113;-70
2023/07/13 01:23:57;;;;;;;16.85;10.48;;;15.40;99.90;;;;;;5042423;28;20025;-70
2023/07/13 01:26:23;;;;;;;15.77;10.55;;;15.50;99.90;;;;;;5042913;28;20045;-70
2023/07/13 01:28:48;;;;;;;18.58;10.07;;;15.40;99.90;;;;;;5042184;28;20029;-70
2023/07/13 01:31:14;;;;;;;17.65;10.30;;;15.20;99.90;;;;;;5043139;28;20052;-70
2023/07/13 01:33:40;;;;;;;19.95;10.65;;;15.30;99.90;;;;;;5042477;28;20041;-69
2023/07/13 01:36:07;;;;;;;17.13;10.82;;;15.30;99.90;;;;;;5042129;28;20093;-70
2023/07/13 01:38:34;;;;;;;16.40;10.57;;;15.30;99.90;;;;;;5042192;28;20025;-70
2023/07/13 01:41:00;;;;;;;16.52;11.57;;;15.30;99.90;;;;;;5041443;28;20010;-70
2023/07/13 01:43:26;;;;;;;19.23;11.40;;;15.30;99.90;;;;;;5042374;28;20056;-70
2023/07/13 01:45:51;;;;;;;18.83;11.48;;;15.20;99.90;;;;;;5042500;28;20076;-70
2023/07/13 01:48:17;;;;;;;22.60;10.90;;;15.30;99.90;;;;;;5042489;28;20041;-70
2023/07/13 01:50:43;;;;;;;16.13;11.30;;;15.30;99.90;;;;;;5042031;28;20049;-70
2023/07/13 01:53:09;;;;;;;18.48;11.32;;;15.30;99.90;;;;;;5042098;28;20731;-70
2023/07/13 01:55:35;;;;;;;22.80;12.18;;;15.30;99.90;;;;;;5042157;28;20162;-70
2023/07/13 01:58:01;;;;;;;23.20;11.98;;;15.20;99.90;;;;;;5041648;28;20047;-70
2023/07/13 02:00:26;;;;;;;13.25;10.27;;;15.20;99.90;;;;;;5042284;28;20025;-69
2023/07/13 02:02:52;;;;;;;19.63;9.30;;;15.10;99.90;;;;;;5041902;28;20092;-71
2023/07/13 02:05:19;;;;;;;15.02;8.52;;;15.20;99.90;;;;;;5041977;28;20026;-70
2023/07/13 02:07:44;;;;;;;20.98;8.93;;;15.20;99.90;;;;;;5042151;28;20021;-70
2023/07/13 02:10:11;;;;;;;15.90;7.90;;;15.20;99.90;;;;;;5041647;28;20032;-70
2023/07/13 02:12:37;;;;;;;11.55;7.00;;;15.20;99.90;;;;;;5041889;28;20726;-69
2023/07/13 02:15:04;;;;;;;14.25;7.53;;;15.10;99.90;;;;;;5042041;28;20113;-70
2023/07/13 02:17:29;;;;;;;21.98;7.55;;;15.10;99.90;;;;;;5040400;28;20021;-70
2023/07/13 02:19:55;;;;;;;17.77;7.47;;;15.20;99.90;;;;;;5041616;28;20108;-70
2023/07/13 02:22:21;;;;;;;18.38;7.43;;;15.10;99.90;;;;;;5042057;28;20025;-70
2023/07/13 02:24:47;;;;;;;16.50;7.40;;;15.10;99.90;;;;;;5041467;28;20010;-69
2023/07/13 02:27:12;;;;;;;19.75;7.47;;;14.90;99.90;;;;;;5041679;28;20033;-69
2023/07/13 02:29:38;;;;;;;13.60;7.10;;;14.90;99.90;;;;;;5041672;28;20039;-70
2023/07/13 02:32:04;;;;;;;15.05;6.82;;;15.00;99.90;;;;;;5041583;28;20030;-69
2023/07/13 02:34:30;;;;;;;15.43;7.32;;;15.00;99.90;;;;;;5041294;28;20037;-69
2023/07/13 02:36:55;;;;;;;17.00;6.45;;;14.90;99.90;;;;;;5041777;28;20036;-70
2023/07/13 02:39:21;;;;;;;16.40;7.00;;;15.00;99.90;;;;;;5041649;28;20031;-70
2023/07/13 02:41:46;;;;;;;14.23;6.53;;;15.00;99.90;;;;;;5041796;28;20018;-69
2023/07/13 02:44:15;;;;;;;12.52;6.40;;;15.00;99.90;;;;;;5041415;28;20029;-69
2023/07/13 02:46:41;;;;;;;16.95;7.25;;;15.00;99.90;;;;;;5040636;28;20052;-68
2023/07/13 02:49:06;;;;;;;13.80;7.00;;;15.00;99.90;;;;;;5041094;28;20014;-71
2023/07/13 02:51:33;;;;;;;14.82;6.93;;;14.90;99.90;;;;;;5041272;28;20022;-70
2023/07/13 02:54:00;;;;;;;13.73;7.25;;;15.00;99.90;;;;;;5041521;28;20057;-70
2023/07/13 02:56:28;;;;;;;13.18;6.57;;;15.00;99.90;;;;;;5039553;28;20068;-70
2023/07/13 02:58:54;;;;;;;12.88;7.28;;;15.00;99.90;;;;;;5040403;28;20527;-70
2023/07/13 03:01:21;;;;;;;15.13;6.97;;;15.00;99.90;;;;;;5040871;28;20474;-69
2023/07/13 03:03:47;;;;;;;15.32;6.90;;;15.00;99.90;;;;;;5041642;28;20018;-70
2023/07/13 03:06:14;;;;;;;18.92;6.70;;;14.90;99.90;;;;;;5040543;28;20026;-69
2023/07/13 03:08:40;;;;;;;12.25;6.38;;;14.90;99.90;;;;;;5041524;28;20053;-69
2023/07/13 03:11:19;;;;;;;16.75;6.85;;;14.90;99.90;;;;;;5042986;28;20026;-69
2023/07/13 03:13:46;;;;;;;15.75;7.45;;;14.90;99.90;;;;;;5045319;28;21464;-69
2023/07/13 03:16:15;;;;;;;16.95;6.65;;;14.90;99.90;;;;;;5045581;28;20068;-69
2023/07/13 03:18:41;;;;;;;22.75;6.93;;;15.00;99.90;;;;;;5044319;28;20048;-69
2023/07/13 03:21:07;;;;;;;20.63;6.18;;;14.90;99.90;;;;;;5044973;28;20497;-69
2023/07/13 03:23:32;;;;;;;21.33;6.65;;;14.90;99.90;;;;;;5044063;28;20054;-67
2023/07/13 03:26:20;;;;;;;16.08;6.90;;;15.00;99.90;;;;;;5044265;28;20366;-68
2023/07/13 03:28:46;;;;;;;23.15;6.85;;;15.00;99.90;;;;;;5044766;28;20401;-68
2023/07/13 03:31:20;;;;;;;17.02;7.15;;;15.00;99.90;;;;;;5044790;28;20089;-67
2023/07/13 03:33:47;;;;;;;17.98;7.18;;;15.00;99.90;;;;;;5044290;28;20044;-69
2023/07/13 03:36:20;;;;;;;17.48;7.30;;;15.00;99.90;;;;;;5044367;28;20025;-68
2023/07/13 03:38:50;;;;;;;17.55;6.93;;;15.00;99.90;;;;;;5044935;28;20065;-68
2023/07/13 03:41:16;;;;;;;17.73;6.75;;;15.10;99.90;;;;;;5044125;28;20139;-68
2023/07/13 03:43:42;;;;;;;14.30;6.28;;;15.10;99.90;;;;;;5045014;28;20057;-68
2023/07/13 03:46:08;;;;;;;14.30;6.47;;;15.10;99.90;;;;;;5043426;28;20026;-68
2023/07/13 03:48:34;;;;;;;16.83;6.15;;;15.20;99.90;;;;;;5043921;28;20048;-69
2023/07/13 03:51:00;;;;;;;16.90;5.57;;;15.20;99.90;;;;;;5043035;28;20061;-69
2023/07/13 03:53:25;;;;;;;18.60;6.50;;;15.20;99.90;;;;;;5044221;28;20565;-68
2023/07/13 03:55:51;;;;;;;14.93;6.28;;;15.20;99.90;;;;;;5043614;28;20045;-68
2023/07/13 03:58:27;;;;;;;22.63;6.97;;;15.20;99.90;;;;;;5044379;28;20025;-69
2023/07/13 04:00:54;;;;;;;16.90;5.78;;;15.20;99.90;;;;;;5045038;28;20037;-69
2023/07/13 04:03:20;;;;;;;15.20;6.13;;;15.20;99.90;;;;;;5044448;28;20026;-67
2023/07/13 04:05:46;;;;;;;23.95;5.88;;;15.20;99.90;;;;;;5044414;28;20040;-69
2023/07/13 04:08:11;;;;;;;18.83;5.95;;;15.20;99.90;;;;;;5044296;28;20017;-70
2023/07/13 04:10:38;;;;;;;16.63;6.20;;;15.30;99.90;;;;;;5044085;28;20571;-68
2023/07/13 04:13:04;;;;;;;18.30;6.25;;;15.30;99.90;;;;;;5044072;28;20120;-68
2023/07/13 04:15:31;;;;;;;18.20;5.38;;;15.20;99.90;;;;;;5043571;28;20021;-68
2023/07/13 04:17:56;;;;;;;15.07;5.38;;;15.20;99.90;;;;;;5043855;28;20406;-67
2023/07/13 04:20:23;;;;;;;22.88;5.28;;;15.30;99.90;;;;;;5043506;28;20018;-69
2023/07/13 04:22:49;;;;;;;21.20;5.43;;;15.30;99.90;;;;;;5042928;28;20024;-69
2023/07/13 04:25:15;;;;;;;23.20;5.65;;;15.30;99.90;;;;;;5043150;28;20026;-70
2023/07/13 04:27:40;;;;;;;20.77;5.25;;;15.30;99.90;;;;;;5043161;28;20036;-69
2023/07/13 04:30:07;;;;;;;18.52;5.60;;;15.40;99.90;;;;;;5043255;28;20367;-68
2023/07/13 04:32:32;;;;;;;21.52;5.82;;;15.40;99.90;;;;;;5042968;28;20087;-70
2023/07/13 04:34:59;;;;;;;24.50;5.78;;;15.40;99.90;;;;;;5043025;28;20128;-68
2023/07/13 04:37:26;;;;;;;14.65;4.93;;;15.50;99.90;;;;;;5042919;28;20080;-69
2023/07/13 04:39:51;;;;;;;18.00;4.97;;;15.50;99.90;;;;;;5043494;28;20057;-69
2023/07/13 04:42:17;;;;;;;19.80;5.25;;;15.50;99.90;;;;;;5042964;28;20470;-69
2023/07/13 04:44:50;;;;;;;17.95;5.35;;;15.50;99.90;;;;;;5043835;28;20025;-69
2023/07/13 04:47:16;;;;;;;16.30;5.10;;;15.50;99.90;;;;;;5043365;28;20021;-69
2023/07/13 04:49:42;;;;;;;16.08;4.38;;;15.50;99.90;;;;;;5042642;28;20069;-68
2023/07/13 04:52:08;;;;;;;16.08;4.63;;;15.50;99.90;;;;;;5043128;28;20037;-68
2023/07/13 04:54:34;;;;;;;15.15;4.40;;;15.40;99.90;;;;;;5043062;28;20030;-68
2023/07/13 04:57:00;;;;;;;20.65;4.65;;;15.50;99.90;;;;;;5042894;28;20020;-68
2023/07/13 04:59:26;;;;;;;22.15;5.43;;;15.60;99.90;;;;;;5043288;28;20084;-69
2023/07/13 05:01:53;;;;;;;18.23;4.90;;;15.60;99.90;;;;;;5042633;28;20056;-68
2023/07/13 05:04:18;;;;;;;13.07;4.53;;;15.60;99.90;;;;;;5042163;28;20030;-68
2023/07/13 05:06:44;;;;;;;18.50;4.60;;;15.60;99.90;;;;;;5043093;28;20026;-68
2023/07/13 05:09:10;;;;;;;27.33;5.07;;;15.60;99.90;;;;;;5042778;28;20087;-66
2023/07/13 05:11:35;;;;;;;20.27;4.13;;;15.60;99.90;;;;;;5042663;28;20025;-69
2023/07/13 05:14:01;;;;;;;26.15;4.50;;;15.70;99.90;;;;;;5042808;28;20059;-70
2023/07/13 05:16:27;;;;;;;17.05;4.30;;;15.70;99.90;;;;;;5042150;28;20024;-68
2023/07/13 05:18:53;;;;;;;13.23;4.20;;;15.70;99.90;;;;;;5042262;28;20493;-68
2023/07/13 05:21:19;;;;;;;15.80;4.50;;;15.80;99.90;;;;;;5042340;28;20048;-68
2023/07/13 05:23:44;;;;;;;15.50;4.25;;;15.80;99.90;;;;;;5042426;28;20021;-68
2023/07/13 05:26:11;;;;;;;18.20;4.38;;;15.80;99.90;;;;;;5042565;28;20025;-69
2023/07/13 05:28:37;;;;;;;14.88;4.40;;;15.80;99.90;;;;;;5042369;28;20021;-68
2023/07/13 05:31:04;;;;;;;16.95;4.00;;;15.90;99.90;;;;;;5042159;28;20048;-70
2023/07/13 05:33:30;;;;;;;15.23;4.45;;;15.80;99.90;;;;;;5041090;28;20047;-69
2023/07/13 05:35:55;;;;;;;24.30;4.90;;;15.90;99.90;;;;;;5042395;28;20112;-70
2023/07/13 05:38:21;;;;;;;15.05;4.38;;;16.00;99.90;;;;;;5042074;28;20072;-70
2023/07/13 05:40:47;;;;;;;18.05;4.28;;;16.00;99.90;;;;;;5041681;28;20029;-70
2023/07/13 05:43:13;;;;;;;18.98;4.45;;;16.10;99.90;;;;;;5040802;28;20528;-69
2023/07/13 05:45:39;;;;;;;27.40;5.13;;;16.10;99.90;;;;;;5042226;28;20025;-68
2023/07/13 05:48:04;;;;;;;15.68;4.20;;;16.10;99.90;;;;;;5041898;28;20025;-69
2023/07/13 05:50:30;;;;;;;19.08;4.35;;;16.10;99.90;;;;;;5039940;28;20038;-71
2023/07/13 05:52:56;;;;;;;18.08;4.45;;;16.20;99.90;;;;;;5043924;28;20382;-70
2023/07/13 05:55:22;;;;;;;17.70;4.63;;;16.20;99.90;;;;;;5042164;28;20103;-69
2023/07/13 05:57:48;;;;;;;14.10;4.22;;;16.30;99.90;;;;;;5040323;28;20552;-69
2023/07/13 06:00:14;;;;;;;13.60;4.30;;;16.30;99.90;;;;;;5041984;28;20130;-70
2023/07/13 06:02:39;;;;;;;18.40;4.68;;;16.40;99.90;;;;;;5041843;28;20030;-68
2023/07/13 06:05:05;;;;;;;15.57;4.53;;;16.40;99.90;;;;;;5041059;28;20029;-71
2023/07/13 06:07:30;;;;;;;21.00;4.90;;;16.50;99.90;;;;;;5042219;28;20056;-70
2023/07/13 06:09:56;;;;;;;21.88;5.15;;;16.40;99.90;;;;;;5040258;28;20026;-68
2023/07/13 06:12:22;;;;;;;20.30;4.72;;;16.50;99.90;;;;;;5040861;28;20044;-69
2023/07/13 06:14:47;;;;;;;19.77;4.35;;;16.50;99.90;;;;;;5040534;28;20064;-68
2023/07/13 06:17:13;;;;;;;18.77;4.65;;;16.50;99.90;;;;;;5041550;28;20928;-68
2023/07/13 06:19:38;;;;;;;16.67;4.82;;;16.60;99.90;;;;;;5041379;28;21136;-69
2023/07/13 06:22:04;;;;;;;14.20;4.22;;;16.70;99.90;;;;;;5042129;28;20033;-71
2023/07/13 06:24:30;;;;;;;17.42;5.13;;;16.70;99.90;;;;;;5039315;28;20403;-69
2023/07/13 06:26:56;;;;;;;20.10;4.82;;;16.80;99.90;;;;;;5040393;28;20049;-69
2023/07/13 06:29:21;;;;;;;20.75;5.55;;;16.90;99.90;;;;;;5039289;28;20049;-69
2023/07/13 06:31:47;;;;;;;15.68;4.10;;;16.90;99.90;;;;;;5040581;28;20056;-69
2023/07/13 06:34:12;;;;;;;13.50;4.30;;;17.00;99.90;;;;;;5041232;28;20033;-77
2023/07/13 06:36:38;;;;;;;18.65;4.32;;;17.00;99.90;;;;;;5041584;28;20813;-71
2023/07/13 06:39:04;;;;;;;23.95;4.53;;;17.00;99.90;;;;;;5041378;28;20039;-69
2023/07/13 06:41:30;;;;;;;16.08;4.05;;;17.10;99.90;;;;;;5041096;28;20033;-69
2023/07/13 06:43:56;;;;;;;19.33;4.95;;;17.10;99.90;;;;;;5041031;28;20022;-70
2023/07/13 06:46:23;;;;;;;17.17;4.20;;;17.20;99.90;;;;;;5044345;28;20479;-70
2023/07/13 06:48:49;;;;;;;20.58;4.88;;;17.20;99.90;;;;;;5043864;28;20076;-68
2023/07/13 06:51:14;;;;;;;20.83;4.78;;;17.20;99.90;;;;;;5043952;28;20045;-69
2023/07/13 06:53:40;;;;;;;18.60;4.18;;;17.20;99.90;;;;;;5043985;28;20476;-67
2023/07/13 06:56:06;;;;;;;22.08;5.35;;;17.20;99.90;;;;;;5045409;28;20037;-71
2023/07/13 06:58:35;;;;;;;19.92;4.35;;;17.20;99.90;;;;;;5041933;28;20025;-69
2023/07/13 07:01:00;;;;;;;15.77;4.80;;;17.30;99.90;;;;;;5044046;28;20013;-70
2023/07/13 07:03:26;;;;;;;21.10;5.25;;;17.20;99.90;;;;;;5044262;28;20044;-69
2023/07/13 07:05:51;;;;;;;20.67;4.65;;;17.20;99.90;;;;;;5045556;28;20049;-69
2023/07/13 07:08:17;;;;;;;21.63;5.05;;;17.30;99.90;;;;;;5044382;28;20029;-70
2023/07/13 07:10:42;;;;;;;21.73;4.95;;;17.30;99.90;;;;;;5044757;28;20021;-69
2023/07/13 07:13:08;;;;;;;32.50;5.28;;;17.40;99.90;;;;;;5043006;28;20045;-70
2023/07/13 07:15:35;;;;;;;18.83;4.88;;;17.40;99.90;;;;;;5044920;28;20024;-68
2023/07/13 07:18:00;;;;;;;19.27;5.50;;;17.50;99.90;;;;;;5044269;28;20029;-70
2023/07/13 07:20:26;;;;;;;15.23;4.93;;;17.50;99.90;;;;;;5044481;28;20056;-68
2023/07/13 07:22:52;;;;;;;26.17;5.20;;;17.60;99.90;;;;;;5044310;28;20028;-70
2023/07/13 07:25:18;;;;;;;23.17;5.30;;;17.50;99.90;;;;;;5045223;28;20085;-70
2023/07/13 07:27:44;;;;;;;18.58;6.22;;;17.70;99.90;;;;;;5045388;28;20033;-70
2023/07/13 07:30:11;;;;;;;15.63;5.18;;;17.70;99.90;;;;;;5044488;28;20033;-69
2023/07/13 07:32:36;;;;;;;13.23;5.18;;;17.70;99.90;;;;;;5043904;28;20802;-70
2023/07/13 07:35:02;;;;;;;16.35;5.10;;;17.80;99.90;;;;;;5044895;28;20402;-69
2023/07/13 07:37:27;;;;;;;16.70;4.95;;;17.80;99.90;;;;;;5044537;28;20025;-70
2023/07/13 07:39:53;;;;;;;20.25;5.88;;;17.90;99.90;;;;;;5044425;28;20026;-73
2023/07/13 07:42:19;;;;;;;18.73;5.95;;;18.00;99.90;;;;;;5043147;28;20021;-69
2023/07/13 07:44:44;;;;;;;19.55;5.55;;;18.00;99.90;;;;;;5043701;28;20021;-69
2023/07/13 07:47:10;;;;;;;26.63;5.93;;;18.00;99.90;;;;;;5044461;28;20030;-69
2023/07/13 07:49:36;;;;;;;21.70;6.40;;;18.10;99.90;;;;;;5043820;28;20092;-69
2023/07/13 07:52:01;;;;;;;19.05;5.55;;;18.10;99.90;;;;;;5044399;28;20096;-69
2023/07/13 07:54:27;;;;;;;22.58;6.15;;;18.20;99.90;;;;;;5040502;28;20049;-69
2023/07/13 07:56:53;;;;;;;17.35;5.78;;;18.20;99.90;;;;;;5039568;28;20547;-70
2023/07/13 07:59:19;;;;;;;18.05;6.05;;;18.30;99.90;;;;;;5042929;28;20033;-69
2023/07/13 08:01:46;;;;;;;12.20;6.03;;;18.30;99.90;;;;;;5043726;28;20041;-69
2023/07/13 08:04:11;;;;;;;16.90;5.72;;;18.30;99.90;;;;;;5042797;28;20577;-70
2023/07/13 08:06:37;;;;;;;16.23;5.88;;;18.30;99.90;;;;;;5042783;28;20053;-70
2023/07/13 08:09:04;;;;;;;17.85;6.32;;;18.30;99.90;;;;;;5040531;28;20137;-71
2023/07/13 08:11:29;;;;;;;19.70;5.97;;;18.40;99.90;;;;;;5040284;28;20040;-70
2023/07/13 08:13:55;;;;;;;19.77;6.30;;;18.40;99.90;;;;;;5038222;28;20398;-68
2023/07/13 08:16:21;;;;;;;11.50;5.10;;;18.40;99.90;;;;;;5042398;28;20022;-71
2023/07/13 08:18:47;;;;;;;12.73;5.22;;;18.40;99.90;;;;;;5041353;28;20033;-74
2023/07/13 08:21:13;;;;;;;13.00;5.40;;;18.50;99.90;;;;;;5040494;28;20040;-71
2023/07/13 08:23:38;;;;;;;14.43;5.30;;;18.50;99.90;;;;;;5041279;28;20359;-70
2023/07/13 08:26:04;;;;;;;14.40;4.70;;;18.50;99.90;;;;;;5043709;28;20052;-70
2023/07/13 08:28:32;;;;;;;16.13;5.78;;;18.60;99.90;;;;;;5042929;28;20478;-69
2023/07/13 08:31:03;;;;;;;11.52;4.80;;;18.70;99.90;;;;;;5043954;28;20036;-69
2023/07/13 08:33:28;;;;;;;17.60;5.40;;;18.70;99.90;;;;;;5042448;28;20045;-71
2023/07/13 08:35:54;;;;;;;19.63;5.95;;;18.90;99.90;;;;;;5041817;28;20017;-69
2023/07/13 08:38:19;;;;;;;13.18;5.13;;;19.00;99.90;;;;;;5040567;28;20026;-72
2023/07/13 08:40:51;;;;;;;19.65;5.45;;;19.10;99.90;;;;;;5042879;28;20033;-71
2023/07/13 08:43:22;;;;;;;10.85;4.60;;;19.20;99.90;;;;;;5042439;28;20052;-70
2023/07/13 08:46:15;;;;;;;12.77;4.50;;;19.30;99.90;;;;;;5044124;28;20025;-68
2023/07/13 08:49:19;;;;;;;11.48;4.15;;;19.50;99.90;;;;;;5043557;28;20060;-70
2023/07/13 08:51:53;;;;;;;8.02;3.85;;;19.60;99.90;;;;;;5020476;28;20080;-73
2023/07/13 08:54:39;;;;;;;;;;;19.60;99.90;;;;;;5044022;28;20083;-71
2023/07/13 08:57:16;;;;;;;10.85;4.30;;;19.70;99.90;;;;;;5042389;28;19988;-69
2023/07/13 08:59:43;;;;;;;13.48;4.25;;;19.70;99.90;;;;;;5042658;28;20045;-69
2023/07/13 09:02:25;;;;;;;10.75;4.15;;;19.70;99.90;;;;;;5042610;28;20021;-70
2023/07/13 09:05:00;;;;;;;8.55;3.55;;;19.90;99.90;;;;;;5042742;28;20048;-67
2023/07/13 09:08:03;;;;;;;10.85;4.55;;;20.00;99.90;;;;;;5042653;28;20033;-68
2023/07/13 09:10:40;;;;;;;11.35;4.15;;;20.10;99.90;;;;;;5041030;28;20032;-70
2023/07/13 09:13:20;;;;;;;12.55;3.80;;;20.00;99.90;;;;;;5042262;28;20052;-72
2023/07/13 09:15:47;;;;;;;11.88;4.00;;;20.00;99.90;;;;;;5042635;28;20109;-72
2023/07/13 09:18:26;;;;;;;8.52;3.70;;;19.90;99.90;;;;;;5042736;28;20033;-72
2023/07/13 09:20:59;;;;;;;12.43;3.78;;;19.90;99.90;;;;;;5042948;28;20037;-71
2023/07/13 09:23:29;;;;;;;14.57;3.45;;;20.00;99.90;;;;;;5042125;28;20029;-73
2023/07/13 09:26:12;;;;;;;10.43;3.58;;;20.10;99.90;;;;;;5041025;28;20036;-71
2023/07/13 09:28:51;;;;;;;8.50;3.10;;;20.00;99.90;;;;;;5041981;28;20036;-70
2023/07/13 09:31:34;;;;;;;6.20;2.80;;;20.00;99.90;;;;;;5041574;28;20093;-69
2023/07/13 09:34:00;;;;;;;9.80;2.90;;;20.00;99.90;;;;;;5041799;28;20083;-67
2023/07/13 09:36:32;;;;;;;9.63;3.20;;;20.10;99.90;;;;;;5041971;28;20040;-72
2023/07/13 09:39:35;;;;;;;9.93;3.13;;;20.30;99.90;;;;;;5041549;28;20048;-71
2023/07/13 09:42:03;;;;;;;7.50;3.10;;;20.40;99.90;;;;;;5041697;28;20033;-69
2023/07/13 09:44:34;;;;;;;10.63;3.13;;;20.40;99.90;;;;;;5042491;28;20033;-70
2023/07/13 09:46:59;;;;;;;12.32;2.83;;;20.30;99.90;;;;;;5042062;28;20115;-71
2023/07/13 09:49:46;;;;;;;8.57;3.22;;;20.40;99.90;;;;;;5042024;28;20127;-71
2023/07/13 09:52:16;;;;;;;7.07;2.92;;;20.60;99.90;;;;;;5042225;28;20082;-71
2023/07/13 09:54:48;;;;;;;9.52;3.00;;;20.70;99.90;;;;;;5042005;28;20037;-71
2023/07/13 09:57:17;;;;;;;7.00;2.30;;;20.70;99.90;;;;;;5039883;28;20069;-69
2023/07/13 09:59:46;;;;;;;9.52;2.60;;;20.70;99.90;;;;;;5041621;28;20089;-70
2023/07/13 10:02:25;;;;;;;8.23;2.70;;;20.90;99.90;;;;;;5042246;28;20108;-68
2023/07/13 10:05:11;;;;;;;4.47;2.50;;;21.00;99.90;;;;;;5041960;28;20033;-70
2023/07/13 10:07:44;;;;;;;7.38;2.97;;;21.10;99.90;;;;;;5038690;28;20033;-70
2023/07/13 10:10:23;;;;;;;8.18;2.55;;;21.10;99.90;;;;;;5041255;28;20044;-71
2023/07/13 10:12:50;;;;;;;5.60;2.38;;;21.10;99.90;;;;;;5040673;28;20044;-73
2023/07/13 10:15:20;;;;;;;7.25;2.55;;;21.10;99.90;;;;;;5040129;28;20527;-71
2023/07/13 10:17:46;;;;;;;5.40;2.38;;;21.10;99.90;;;;;;5037397;28;20044;-71
2023/07/13 10:20:12;;;;;;;5.35;2.42;;;21.30;99.90;;;;;;5039086;28;20041;-73
2023/07/13 10:23:00;;;;;;;5.82;2.17;;;21.30;99.90;;;;;;5039955;28;20117;-69
2023/07/13 10:25:30;;;;;;;6.95;2.40;;;21.30;99.90;;;;;;5039200;28;20036;-69
2023/07/13 10:28:09;;;;;;;8.60;2.75;;;21.20;99.90;;;;;;5039642;28;20022;-69
2023/07/13 10:30:41;;;;;;;5.63;2.22;;;21.20;99.90;;;;;;5040534;28;20470;-71
2023/07/13 10:33:12;;;;;;;7.60;2.30;;;21.40;99.90;;;;;;5038803;28;20056;-69
2023/07/13 10:35:40;;;;;;;8.07;3.38;;;21.50;99.90;;;;;;5038892;28;20025;-75
2023/07/13 10:38:11;;;;;;;5.60;2.17;;;21.40;99.90;;;;;;5038766;28;20037;-71
2023/07/13 10:40:41;;;;;;;11.57;2.85;;;21.20;99.90;;;;;;5040622;28;20100;-69
2023/07/13 10:43:30;;;;;;;7.60;3.30;;;21.00;99.90;;;;;;5041096;28;20022;-70
2023/07/13 10:45:56;;;;;;;6.93;2.75;;;20.90;99.90;;;;;;5037972;28;20037;-70
2023/07/13 10:48:23;;;;;;;10.63;2.80;;;20.90;99.90;;;;;;5039749;28;20565;-70
2023/07/13 10:50:52;;;;;;;9.65;3.30;;;20.90;99.90;;;;;;5039669;28;20509;-70
2023/07/13 10:53:39;;;;;;;7.13;2.90;;;21.00;99.90;;;;;;5040664;28;20030;-70
2023/07/13 10:56:27;;;;;;;5.38;2.30;;;20.80;99.90;;;;;;5041375;28;20025;-69
2023/07/13 10:59:08;;;;;;;9.07;2.08;;;20.70;99.90;;;;;;5040197;28;20021;-72
2023/07/13 11:02:11;;;;;;;6.40;2.40;;;20.70;99.90;;;;;;5041031;28;20044;-71
2023/07/13 11:04:47;;;;;;;5.38;2.10;;;20.60;99.90;;;;;;5041273;28;20123;-72
2023/07/13 11:07:19;;;;;;;6.47;2.42;;;20.50;99.90;;;;;;5037847;28;20033;-67
2023/07/13 11:09:51;;;;;;;7.88;2.22;;;20.40;99.90;;;;;;5042344;28;20026;-68
2023/07/13 11:12:19;;;;;;;7.15;2.60;;;20.40;99.90;;;;;;5041001;28;20075;-71
2023/07/13 11:14:54;;;;;;;6.25;2.30;;;20.30;99.90;;;;;;5039548;28;20041;-69
2023/07/13 11:17:32;;;;;;;6.97;2.33;;;20.20;99.90;;;;;;5040911;28;20025;-68
2023/07/13 11:20:22;;;;;;;6.82;2.47;;;20.20;99.90;;;;;;5039003;28;20033;-71
2023/07/13 11:23:06;;;;;;;6.20;2.15;;;20.20;99.90;;;;;;5040713;28;20052;-70
2023/07/13 11:25:34;;;;;;;8.48;2.20;;;20.30;99.90;;;;;;5037939;28;20026;-72
2023/07/13 11:28:12;;;;;;;5.78;2.00;;;20.30;99.90;;;;;;5039390;28;20036;-69
2023/07/13 11:30:48;;;;;;;5.75;2.25;;;20.30;99.90;;;;;;5038499;28;20033;-67
2023/07/13 11:33:42;;;;;;;5.05;2.25;;;20.20;99.90;;;;;;5041843;28;20063;-71
2023/07/13 11:36:16;;;;;;;5.47;2.37;;;20.10;99.90;;;;;;5037947;28;20502;-71
2023/07/13 11:38:50;;;;;;;8.70;3.10;;;20.10;99.90;;;;;;5044026;28;20291;-69
2023/07/13 11:41:31;;;;;;;8.32;2.80;;;20.00;99.90;;;;;;5041691;28;20077;-68
2023/07/13 11:44:15;;;;;;;4.90;2.72;;;19.90;99.90;;;;;;5043720;28;20033;-70
2023/07/13 11:46:46;;;;;;;7.65;3.15;;;19.80;99.90;;;;;;5042628;28;20061;-71
2023/07/13 11:49:16;;;;;;;5.43;3.10;;;19.80;99.90;;;;;;5042770;28;20022;-71
2023/07/13 11:51:43;;;;;;;7.50;2.88;;;19.70;99.90;;;;;;5044348;28;20108;-69
2023/07/13 11:54:39;;;;;;;7.18;3.30;;;19.60;99.90;;;;;;5043635;28;20717;-72
2023/07/13 11:57:25;;;;;;;6.63;3.20;;;19.40;99.90;;;;;;5043070;28;20029;-71
2023/07/13 11:59:53;;;;;;;5.78;2.67;;;19.20;99.90;;;;;;5036619;28;20030;-69
2023/07/13 12:02:31;;;;;;;11.27;2.70;;;18.90;99.90;;;;;;5044140;28;20037;-72
2023/07/13 12:04:58;;;;;;;10.98;2.35;;;18.70;99.90;;;;;;5043139;28;20040;-71
2023/07/13 12:07:24;;;;;;;4.13;2.35;;;18.30;99.90;;;;;;5043254;28;20108;-75
2023/07/13 12:09:50;;;;;;;6.05;2.50;;;18.00;99.90;;;;;;5042759;28;20421;-71
2023/07/13 12:12:22;;;;;;;4.63;2.30;;;17.70;99.90;;;;;;5044129;28;20080;-70
2023/07/13 12:14:52;;;;;;;5.07;2.20;;;17.40;99.90;;;;;;5042271;28;20033;-71
2023/07/13 12:17:23;;;;;;;4.10;2.35;;;17.20;99.90;;;;;;5041064;28;20375;-71
2023/07/13 12:19:51;;;;;;;3.72;2.10;;;17.10;99.90;;;;;;5042172;28;20049;-72
2023/07/13 12:22:19;;;;;;;8.38;2.50;;;16.90;99.90;;;;;;5041627;28;20021;-69
2023/07/13 12:24:46;;;;;;;5.30;2.70;;;16.80;99.90;;;;;;5042887;28;20056;-73
2023/07/13 12:27:27;;;;;;;7.55;3.13;;;16.80;99.90;;;;;;5042178;28;20029;-70
2023/07/13 12:30:23;;;;;;;7.05;3.63;;;16.70;99.90;;;;;;5043477;28;20117;-70
2023/07/13 12:33:10;;;;;;;8.80;4.78;;;16.70;99.90;;;;;;5043198;28;20025;-71
2023/07/13 12:35:44;;;;;;;5.78;3.78;;;16.70;99.90;;;;;;5043254;28;20029;-69
2023/07/13 12:38:11;;;;;;;5.03;2.80;;;16.70;99.90;;;;;;5042107;28;20028;-69
2023/07/13 12:40:37;;;;;;;5.55;2.90;;;16.80;99.90;;;;;;5042870;28;20049;-71
2023/07/13 12:43:04;;;;;;;4.47;3.00;;;16.90;99.90;;;;;;5041184;28;20048;-71
2023/07/13 12:45:30;;;;;;;5.10;2.50;;;16.90;99.90;;;;;;5042444;28;20398;-69
2023/07/13 12:47:59;;;;;;;5.78;2.78;;;17.00;99.90;;;;;;5041144;28;20092;-71
2023/07/13 12:50:33;;;;;;;5.75;2.80;;;17.20;99.90;;;;;;5038061;28;20068;-70